sensor_id;sensor_type;location;lat;lon;timestamp;pressure;altitude;pressure_sealevel;temperature;humidity
39243;BME280;29823;47.404;8.566;2023-02-18T00:01:26;97680.53;;;9.01;100.00
39243;BME280;29823;47.404;8.566;2023-02-18T00:03:56;97688.72;;;8.99;100.00
39243;BME280;29823;47.404;8.566;2023-02-18T00:06:25;97684.84;;;9.02;100.00
39243;BME280;29823;47.404;8.566;2023-02-18T00:08:54;97691.03;;;9.09;100.00
39243;BME280;29823;47.404;8.566;2023-02-18T00:11:25;97687.31;;;9.31;100.00
39243;BME280;29823;47.404;8.566;2023-02-18T00:13:55;97682.41;;;9.34;100.00
39243;BME280;29823;47.404;8.566;2023-02-18T00:16:24;97676.75;;;9.44;100.00
39243;BME280;29823;47.404;8.566;2023-02-18T00:18:54;97675.13;;;9.49;100.00
39243;BME280;29823;47.404;8.566;2023-02-18T00:21:22;97674.13;;;9.57;100.00
39243;BME280;29823;47.404;8.566;2023-02-18T00:23:50;97674.38;;;9.62;100.00
39243;BME280;29823;47.404;8.566;2023-02-18T00:26:20;97657.13;;;9.64;100.00
39243;BME280;29823;47.404;8.566;2023-02-18T00:28:50;97653.47;;;9.72;100.00
39243;BME280;29823;47.404;8.566;2023-02-18T00:31:20;97653.19;;;9.94;100.00
39243;BME280;29823;47.404;8.566;2023-02-18T00:33:48;97643.84;;;9.77;100.00
39243;BME280;29823;47.404;8.566;2023-02-18T00:36:18;97637.03;;;9.68;100.00
39243;BME280;29823;47.404;8.566;2023-02-18T00:38:47;97650.19;;;9.76;100.00
39243;BME280;29823;47.404;8.566;2023-02-18T00:41:16;97658.88;;;9.78;100.00
39243;BME280;29823;47.404;8.566;2023-02-18T00:43:44;97653.38;;;9.99;100.00
39243;BME280;29823;47.404;8.566;2023-02-18T00:46:13;97629.69;;;9.83;100.00
39243;BME280;29823;47.404;8.566;2023-02-18T00:48:42;97653.28;;;10.20;100.00
39243;BME280;29823;47.404;8.566;2023-02-18T00:51:11;97644.00;;;10.10;100.00
39243;BME280;29823;47.404;8.566;2023-02-18T00:53:39;97646.56;;;9.90;100.00
39243;BME280;29823;47.404;8.566;2023-02-18T00:56:07;97647.16;;;9.79;100.00
39243;BME280;29823;47.404;8.566;2023-02-18T00:58:35;97645.94;;;9.88;100.00
39243;BME280;29823;47.404;8.566;2023-02-18T01:01:05;97641.00;;;9.85;100.00
39243;BME280;29823;47.404;8.566;2023-02-18T01:03:35;97641.56;;;9.74;100.00
39243;BME280;29823;47.404;8.566;2023-02-18T01:06:03;97638.25;;;9.72;100.00
39243;BME280;29823;47.404;8.566;2023-02-18T01:08:32;97631.97;;;9.86;100.00
39243;BME280;29823;47.404;8.566;2023-02-18T01:11:00;97654.03;;;10.01;100.00
39243;BME280;29823;47.404;8.566;2023-02-18T01:13:29;97647.97;;;10.27;100.00
39243;BME280;29823;47.404;8.566;2023-02-18T01:15:57;97641.63;;;10.34;100.00
39243;BME280;29823;47.404;8.566;2023-02-18T01:18:25;97640.78;;;10.40;100.00
39243;BME280;29823;47.404;8.566;2023-02-18T01:20:55;97645.94;;;10.35;100.00
39243;BME280;29823;47.404;8.566;2023-02-18T01:23:23;97635.66;;;10.39;100.00
39243;BME280;29823;47.404;8.566;2023-02-18T01:25:51;97631.75;;;10.35;100.00
39243;BME280;29823;47.404;8.566;2023-02-18T01:28:19;97627.63;;;10.32;100.00
39243;BME280;29823;47.404;8.566;2023-02-18T01:30:51;97618.97;;;10.30;100.00
39243;BME280;29823;47.404;8.566;2023-02-18T01:33:19;97617.97;;;10.44;100.00
39243;BME280;29823;47.404;8.566;2023-02-18T01:35:47;97614.69;;;10.49;100.00
39243;BME280;29823;47.404;8.566;2023-02-18T01:38:17;97609.78;;;10.46;100.00
39243;BME280;29823;47.404;8.566;2023-02-18T01:40:48;97612.66;;;10.64;100.00
39243;BME280;29823;47.404;8.566;2023-02-18T01:43:18;97608.72;;;10.60;100.00
39243;BME280;29823;47.404;8.566;2023-02-18T01:45:55;97613.06;;;10.54;100.00
39243;BME280;29823;47.404;8.566;2023-02-18T01:48:28;97617.97;;;10.44;100.00
39243;BME280;29823;47.404;8.566;2023-02-18T01:51:01;97604.00;;;10.49;100.00
39243;BME280;29823;47.404;8.566;2023-02-18T01:53:35;97611.00;;;10.56;100.00
39243;BME280;29823;47.404;8.566;2023-02-18T01:56:08;97597.84;;;10.61;100.00
39243;BME280;29823;47.404;8.566;2023-02-18T01:58:39;97609.34;;;10.55;100.00
39243;BME280;29823;47.404;8.566;2023-02-18T02:01:08;97607.72;;;10.54;100.00
39243;BME280;29823;47.404;8.566;2023-02-18T02:03:36;97612.25;;;10.60;100.00
39243;BME280;29823;47.404;8.566;2023-02-18T02:06:13;97600.91;;;10.58;100.00
39243;BME280;29823;47.404;8.566;2023-02-18T02:08:44;97602.56;;;10.53;100.00
39243;BME280;29823;47.404;8.566;2023-02-18T02:11:23;97596.59;;;10.57;100.00
39243;BME280;29823;47.404;8.566;2023-02-18T02:14:06;97605.84;;;10.61;100.00
39243;BME280;29823;47.404;8.566;2023-02-18T02:16:41;97608.94;;;10.58;100.00
39243;BME280;29823;47.404;8.566;2023-02-18T02:22:21;97610.59;;;10.59;100.00
39243;BME280;29823;47.404;8.566;2023-02-18T02:25:10;97609.78;;;10.59;100.00
39243;BME280;29823;47.404;8.566;2023-02-18T02:28:00;97604.00;;;10.55;100.00
39243;BME280;29823;47.404;8.566;2023-02-18T02:31:02;97586.06;;;10.36;100.00
39243;BME280;29823;47.404;8.566;2023-02-18T02:33:49;97591.06;;;10.46;100.00
39243;BME280;29823;47.404;8.566;2023-02-18T02:36:23;97575.00;;;10.39;100.00
39243;BME280;29823;47.404;8.566;2023-02-18T02:39:00;97586.50;;;10.33;100.00
39243;BME280;29823;47.404;8.566;2023-02-18T02:41:43;97589.19;;;10.33;100.00
39243;BME280;29823;47.404;8.566;2023-02-18T02:44:19;97589.56;;;10.30;100.00
39243;BME280;29823;47.404;8.566;2023-02-18T02:46:50;97576.00;;;10.25;100.00
39243;BME280;29823;47.404;8.566;2023-02-18T02:49:31;97569.00;;;10.24;100.00
39243;BME280;29823;47.404;8.566;2023-02-18T02:52:05;97565.72;;;10.35;100.00
39243;BME280;29823;47.404;8.566;2023-02-18T02:54:34;97572.09;;;10.47;100.00
39243;BME280;29823;47.404;8.566;2023-02-18T02:57:07;97562.44;;;10.53;100.00
39243;BME280;29823;47.404;8.566;2023-02-18T02:59:39;97556.06;;;10.47;100.00
39243;BME280;29823;47.404;8.566;2023-02-18T03:02:17;97547.63;;;10.44;100.00
39243;BME280;29823;47.404;8.566;2023-02-18T03:05:02;97551.75;;;10.53;100.00
39243;BME280;29823;47.404;8.566;2023-02-18T03:10:42;97554.41;;;10.46;100.00
39243;BME280;29823;47.404;8.566;2023-02-18T03:13:17;97551.34;;;10.49;100.00
39243;BME280;29823;47.404;8.566;2023-02-18T03:15:55;97552.97;;;10.11;100.00
39243;BME280;29823;47.404;8.566;2023-02-18T03:18:31;97552.13;;;10.11;100.00
39243;BME280;29823;47.404;8.566;2023-02-18T03:21:04;97551.44;;;9.96;100.00
39243;BME280;29823;47.404;8.566;2023-02-18T03:23:38;97565.59;;;9.90;100.00
39243;BME280;29823;47.404;8.566;2023-02-18T03:26:09;97557.31;;;9.65;100.00
39243;BME280;29823;47.404;8.566;2023-02-18T03:28:38;97559.38;;;9.63;100.00
39243;BME280;29823;47.404;8.566;2023-02-18T03:31:08;97564.72;;;9.70;100.00
39243;BME280;29823;47.404;8.566;2023-02-18T03:33:43;97563.28;;;9.74;100.00
39243;BME280;29823;47.404;8.566;2023-02-18T03:36:12;97548.09;;;9.74;100.00
39243;BME280;29823;47.404;8.566;2023-02-18T03:38:45;97554.44;;;9.67;100.00
39243;BME280;29823;47.404;8.566;2023-02-18T03:41:15;97542.31;;;9.64;100.00
39243;BME280;29823;47.404;8.566;2023-02-18T03:43:48;97558.78;;;9.74;100.00
39243;BME280;29823;47.404;8.566;2023-02-18T03:46:16;97547.03;;;9.62;100.00
39243;BME280;29823;47.404;8.566;2023-02-18T03:48:44;97561.03;;;9.77;100.00
39243;BME280;29823;47.404;8.566;2023-02-18T03:51:12;97561.69;;;9.79;100.00
39243;BME280;29823;47.404;8.566;2023-02-18T03:53:40;97559.81;;;9.80;100.00
39243;BME280;29823;47.404;8.566;2023-02-18T03:56:09;97550.81;;;9.81;100.00
39243;BME280;29823;47.404;8.566;2023-02-18T03:58:37;97552.88;;;9.92;100.00
39243;BME280;29823;47.404;8.566;2023-02-18T04:01:05;97550.78;;;9.87;100.00
39243;BME280;29823;47.404;8.566;2023-02-18T04:03:33;97550.00;;;9.87;100.00
39243;BME280;29823;47.404;8.566;2023-02-18T04:06:01;97550.19;;;9.85;100.00
39243;BME280;29823;47.404;8.566;2023-02-18T04:08:29;97553.88;;;9.78;100.00
39243;BME280;29823;47.404;8.566;2023-02-18T04:10:56;97542.16;;;9.79;100.00
39243;BME280;29823;47.404;8.566;2023-02-18T04:13:26;97549.34;;;9.78;100.00
39243;BME280;29823;47.404;8.566;2023-02-18T04:15:54;97558.38;;;9.77;100.00
39243;BME280;29823;47.404;8.566;2023-02-18T04:18:22;97559.41;;;9.76;100.00
39243;BME280;29823;47.404;8.566;2023-02-18T04:20:50;97556.72;;;9.76;100.00
39243;BME280;29823;47.404;8.566;2023-02-18T04:23:18;97552.84;;;9.79;100.00
39243;BME280;29823;47.404;8.566;2023-02-18T04:25:46;97552.47;;;9.95;100.00
39243;BME280;29823;47.404;8.566;2023-02-18T04:28:15;97551.66;;;10.01;100.00
39243;BME280;29823;47.404;8.566;2023-02-18T04:30:45;97556.63;;;10.04;100.00
39243;BME280;29823;47.404;8.566;2023-02-18T04:33:14;97553.50;;;9.94;100.00
39243;BME280;29823;47.404;8.566;2023-02-18T04:35:42;97550.59;;;9.89;100.00
39243;BME280;29823;47.404;8.566;2023-02-18T04:38:10;97542.38;;;9.84;100.00
39243;BME280;29823;47.404;8.566;2023-02-18T04:40:38;97541.31;;;9.72;100.00
39243;BME280;29823;47.404;8.566;2023-02-18T04:43:06;97545.41;;;9.68;100.00
39243;BME280;29823;47.404;8.566;2023-02-18T04:45:34;97543.31;;;9.57;100.00
39243;BME280;29823;47.404;8.566;2023-02-18T04:48:04;97534.66;;;9.48;100.00
39243;BME280;29823;47.404;8.566;2023-02-18T04:50:33;97539.19;;;9.54;100.00
39243;BME280;29823;47.404;8.566;2023-02-18T04:53:02;97543.34;;;9.63;100.00
39243;BME280;29823;47.404;8.566;2023-02-18T04:55:29;97516.19;;;9.53;100.00
39243;BME280;29823;47.404;8.566;2023-02-18T04:57:57;97546.59;;;9.59;100.00
39243;BME280;29823;47.404;8.566;2023-02-18T05:00:25;97548.84;;;9.49;100.00
39243;BME280;29823;47.404;8.566;2023-02-18T05:02:54;97541.22;;;9.46;100.00
39243;BME280;29823;47.404;8.566;2023-02-18T05:05:23;97545.53;;;9.47;100.00
39243;BME280;29823;47.404;8.566;2023-02-18T05:07:51;97539.94;;;9.35;100.00
39243;BME280;29823;47.404;8.566;2023-02-18T05:10:19;97541.56;;;9.30;100.00
39243;BME280;29823;47.404;8.566;2023-02-18T05:12:47;97540.34;;;9.32;100.00
39243;BME280;29823;47.404;8.566;2023-02-18T05:15:15;97542.06;;;9.46;100.00
39243;BME280;29823;47.404;8.566;2023-02-18T05:17:43;97536.38;;;9.75;100.00
39243;BME280;29823;47.404;8.566;2023-02-18T05:20:11;97541.06;;;9.60;100.00
39243;BME280;29823;47.404;8.566;2023-02-18T05:22:41;97543.31;;;9.57;100.00
39243;BME280;29823;47.404;8.566;2023-02-18T05:25:09;97527.88;;;9.46;100.00
39243;BME280;29823;47.404;8.566;2023-02-18T05:27:37;97528.69;;;9.46;100.00
39243;BME280;29823;47.404;8.566;2023-02-18T05:30:06;97528.56;;;9.67;100.00
39243;BME280;29823;47.404;8.566;2023-02-18T05:32:34;97530.56;;;9.52;100.00
39243;BME280;29823;47.404;8.566;2023-02-18T05:35:01;97538.19;;;9.62;100.00
39243;BME280;29823;47.404;8.566;2023-02-18T05:37:29;97536.53;;;9.54;100.00
39243;BME280;29823;47.404;8.566;2023-02-18T05:39:59;97537.50;;;9.47;100.00
39243;BME280;29823;47.404;8.566;2023-02-18T05:42:26;97531.38;;;9.46;100.00
39243;BME280;29823;47.404;8.566;2023-02-18T05:44:54;97531.16;;;9.41;100.00
39243;BME280;29823;47.404;8.566;2023-02-18T05:47:22;97540.78;;;9.42;100.00
39243;BME280;29823;47.404;8.566;2023-02-18T05:49:50;97539.06;;;9.28;100.00
39243;BME280;29823;47.404;8.566;2023-02-18T05:52:17;97536.41;;;9.28;100.00
39243;BME280;29823;47.404;8.566;2023-02-18T05:54:47;97531.72;;;9.30;100.00
39243;BME280;29823;47.404;8.566;2023-02-18T05:57:16;97527.00;;;9.32;100.00
39243;BME280;29823;47.404;8.566;2023-02-18T05:59:44;97537.06;;;9.37;100.00
39243;BME280;29823;47.404;8.566;2023-02-18T06:02:12;97510.72;;;9.21;100.00
39243;BME280;29823;47.404;8.566;2023-02-18T06:04:40;97539.38;;;9.53;100.00
39243;BME280;29823;47.404;8.566;2023-02-18T06:07:08;97537.56;;;9.53;100.00
39243;BME280;29823;47.404;8.566;2023-02-18T06:09:35;97536.34;;;9.62;100.00
39243;BME280;29823;47.404;8.566;2023-02-18T06:12:04;97535.13;;;9.65;100.00
39243;BME280;29823;47.404;8.566;2023-02-18T06:14:33;97536.34;;;9.62;100.00
39243;BME280;29823;47.404;8.566;2023-02-18T06:17:00;97538.38;;;9.60;100.00
39243;BME280;29823;47.404;8.566;2023-02-18T06:19:28;97542.88;;;9.53;100.00
39243;BME280;29823;47.404;8.566;2023-02-18T06:21:56;97545.41;;;9.68;100.00
39243;BME280;29823;47.404;8.566;2023-02-18T06:24:24;97541.44;;;9.51;100.00
39243;BME280;29823;47.404;8.566;2023-02-18T06:26:51;97524.31;;;9.32;100.00
39243;BME280;29823;47.404;8.566;2023-02-18T06:29:19;97540.78;;;9.42;100.00
39243;BME280;29823;47.404;8.566;2023-02-18T06:31:48;97538.13;;;9.42;100.00
39243;BME280;29823;47.404;8.566;2023-02-18T06:34:16;97533.78;;;9.35;100.00
39243;BME280;29823;47.404;8.566;2023-02-18T06:36:44;97542.41;;;9.37;100.00
39243;BME280;29823;47.404;8.566;2023-02-18T06:39:12;97540.56;;;9.37;100.00
39243;BME280;29823;47.404;8.566;2023-02-18T06:41:40;97535.84;;;9.39;100.00
39243;BME280;29823;47.404;8.566;2023-02-18T06:44:08;97532.97;;;9.41;100.00
39243;BME280;29823;47.404;8.566;2023-02-18T06:46:37;97542.84;;;9.40;100.00
39243;BME280;29823;47.404;8.566;2023-02-18T06:49:06;97535.03;;;9.45;100.00
39243;BME280;29823;47.404;8.566;2023-02-18T06:51:34;97534.28;;;9.51;100.00
39243;BME280;29823;47.404;8.566;2023-02-18T06:54:02;97532.22;;;9.53;100.00
39243;BME280;29823;47.404;8.566;2023-02-18T06:56:31;97525.47;;;9.57;100.00
39243;BME280;29823;47.404;8.566;2023-02-18T06:58:59;97531.66;;;9.77;100.00
39243;BME280;29823;47.404;8.566;2023-02-18T07:01:27;97533.31;;;9.85;100.00
39243;BME280;29823;47.404;8.566;2023-02-18T07:03:54;97538.50;;;9.99;100.00
39243;BME280;29823;47.404;8.566;2023-02-18T07:06:24;97527.06;;;10.05;100.00
39243;BME280;29823;47.404;8.566;2023-02-18T07:08:52;97525.41;;;10.17;100.00
39243;BME280;29823;47.404;8.566;2023-02-18T07:11:20;97529.13;;;10.29;100.00
39243;BME280;29823;47.404;8.566;2023-02-18T07:13:48;97531.38;;;10.45;100.00
39243;BME280;29823;47.404;8.566;2023-02-18T07:16:15;97528.31;;;10.61;100.00
39243;BME280;29823;47.404;8.566;2023-02-18T07:18:44;97530.75;;;10.69;100.00
39243;BME280;29823;47.404;8.566;2023-02-18T07:21:12;97531.16;;;10.86;100.00
39243;BME280;29823;47.404;8.566;2023-02-18T07:23:41;97532.59;;;10.88;100.00
39243;BME280;29823;47.404;8.566;2023-02-18T07:26:11;97537.72;;;10.96;100.00
39243;BME280;29823;47.404;8.566;2023-02-18T07:28:40;97534.03;;;10.91;100.00
39243;BME280;29823;47.404;8.566;2023-02-18T07:31:08;97530.47;;;11.16;100.00
39243;BME280;29823;47.404;8.566;2023-02-18T07:33:36;97533.63;;;11.57;100.00
39243;BME280;29823;47.404;8.566;2023-02-18T07:36:04;97530.50;;;11.73;100.00
39243;BME280;29823;47.404;8.566;2023-02-18T07:38:33;97530.13;;;11.70;100.00
39243;BME280;29823;47.404;8.566;2023-02-18T07:41:02;97539.03;;;11.95;100.00
39243;BME280;29823;47.404;8.566;2023-02-18T07:43:30;97531.06;;;11.88;100.00
39243;BME280;29823;47.404;8.566;2023-02-18T07:45:58;97523.28;;;12.11;100.00
39243;BME280;29823;47.404;8.566;2023-02-18T07:48:26;97524.72;;;12.07;100.00
39243;BME280;29823;47.404;8.566;2023-02-18T07:50:53;97524.22;;;12.23;100.00
39243;BME280;29823;47.404;8.566;2023-02-18T07:53:21;97523.69;;;12.39;100.00
39243;BME280;29823;47.404;8.566;2023-02-18T07:55:49;97513.78;;;12.15;100.00
39243;BME280;29823;47.404;8.566;2023-02-18T07:58:22;97528.53;;;12.24;100.00
39243;BME280;29823;47.404;8.566;2023-02-18T08:00:51;97529.56;;;12.54;100.00
39243;BME280;29823;47.404;8.566;2023-02-18T08:03:20;97524.94;;;12.61;100.00
39243;BME280;29823;47.404;8.566;2023-02-18T08:05:49;97531.56;;;12.83;100.00
39243;BME280;29823;47.404;8.566;2023-02-18T08:08:19;97522.41;;;12.91;100.00
39243;BME280;29823;47.404;8.566;2023-02-18T08:10:49;97514.81;;;13.30;100.00
39243;BME280;29823;47.404;8.566;2023-02-18T08:13:18;97518.69;;;13.52;100.00
39243;BME280;29823;47.404;8.566;2023-02-18T08:15:46;97527.00;;;13.80;100.00
39243;BME280;29823;47.404;8.566;2023-02-18T08:18:15;97518.44;;;13.72;100.00
39243;BME280;29823;47.404;8.566;2023-02-18T08:20:44;97495.75;;;13.50;100.00
39243;BME280;29823;47.404;8.566;2023-02-18T08:23:13;97522.81;;;13.37;100.00
39243;BME280;29823;47.404;8.566;2023-02-18T08:25:44;97524.09;;;13.82;100.00
39243;BME280;29823;47.404;8.566;2023-02-18T08:28:15;97534.03;;;13.63;100.00
39243;BME280;29823;47.404;8.566;2023-02-18T08:30:45;97534.25;;;13.62;100.00
39243;BME280;29823;47.404;8.566;2023-02-18T08:33:14;97531.28;;;13.70;100.00
39243;BME280;29823;47.404;8.566;2023-02-18T08:35:43;97522.16;;;13.71;100.00
39243;BME280;29823;47.404;8.566;2023-02-18T08:38:11;97537.84;;;14.03;98.99
39243;BME280;29823;47.404;8.566;2023-02-18T08:40:39;97537.03;;;13.73;100.00
39243;BME280;29823;47.404;8.566;2023-02-18T08:43:08;97534.75;;;13.88;100.00
39243;BME280;29823;47.404;8.566;2023-02-18T08:45:37;97527.19;;;13.67;100.00
39243;BME280;29823;47.404;8.566;2023-02-18T08:48:08;97528.22;;;13.30;100.00
39243;BME280;29823;47.404;8.566;2023-02-18T08:50:45;97529.41;;;13.52;100.00
39243;BME280;29823;47.404;8.566;2023-02-18T08:53:13;97533.72;;;13.71;99.95
39243;BME280;29823;47.404;8.566;2023-02-18T08:55:41;97534.66;;;13.95;98.45
39243;BME280;29823;47.404;8.566;2023-02-18T08:58:10;97533.00;;;14.53;94.74
39243;BME280;29823;47.404;8.566;2023-02-18T09:00:38;97518.00;;;14.45;91.84
39243;BME280;29823;47.404;8.566;2023-02-18T09:03:10;97526.47;;;14.19;93.12
39243;BME280;29823;47.404;8.566;2023-02-18T09:05:38;97526.28;;;14.32;92.61
39243;BME280;29823;47.404;8.566;2023-02-18T09:08:07;97527.34;;;13.84;93.28
39243;BME280;29823;47.404;8.566;2023-02-18T09:10:35;97516.47;;;14.08;94.79
39243;BME280;29823;47.404;8.566;2023-02-18T09:13:05;97508.19;;;14.62;91.75
39243;BME280;29823;47.404;8.566;2023-02-18T09:15:32;97518.19;;;15.19;87.93
39243;BME280;29823;47.404;8.566;2023-02-18T09:18:00;97510.59;;;16.07;79.80
39243;BME280;29823;47.404;8.566;2023-02-18T09:20:29;97518.50;;;16.69;77.57
39243;BME280;29823;47.404;8.566;2023-02-18T09:22:57;97508.91;;;16.78;76.22
39243;BME280;29823;47.404;8.566;2023-02-18T09:25:26;97519.06;;;16.55;75.31
39243;BME280;29823;47.404;8.566;2023-02-18T09:27:54;97509.72;;;16.18;76.22
39243;BME280;29823;47.404;8.566;2023-02-18T09:30:22;97511.28;;;15.74;78.18
39243;BME280;29823;47.404;8.566;2023-02-18T09:32:50;97508.56;;;15.86;76.91
39243;BME280;29823;47.404;8.566;2023-02-18T09:35:17;97505.88;;;15.46;78.33
39243;BME280;29823;47.404;8.566;2023-02-18T09:37:47;97499.81;;;16.23;77.18
39243;BME280;29823;47.404;8.566;2023-02-18T09:40:23;97496.41;;;15.09;78.30
39243;BME280;29823;47.404;8.566;2023-02-18T09:42:54;97499.09;;;15.21;82.31
39243;BME280;29823;47.404;8.566;2023-02-18T09:45:23;97491.72;;;14.93;82.14
39243;BME280;29823;47.404;8.566;2023-02-18T09:47:51;97492.66;;;15.33;82.33
39243;BME280;29823;47.404;8.566;2023-02-18T09:52:51;97487.53;;;14.74;87.01
39243;BME280;29823;47.404;8.566;2023-02-18T09:55:24;97491.34;;;15.24;84.99
39243;BME280;29823;47.404;8.566;2023-02-18T09:57:57;97491.38;;;14.90;84.33
39243;BME280;29823;47.404;8.566;2023-02-18T10:00:31;97497.13;;;15.05;84.83
39243;BME280;29823;47.404;8.566;2023-02-18T10:03:03;97498.53;;;15.07;81.84
39243;BME280;29823;47.404;8.566;2023-02-18T10:05:35;97503.31;;;15.05;84.02
39243;BME280;29823;47.404;8.566;2023-02-18T10:08:06;97507.16;;;14.98;82.40
39243;BME280;29823;47.404;8.566;2023-02-18T10:10:41;97502.00;;;15.19;83.19
39243;BME280;29823;47.404;8.566;2023-02-18T10:13:12;97491.97;;;15.77;78.17
39243;BME280;29823;47.404;8.566;2023-02-18T10:15:41;97485.91;;;16.59;75.79
39243;BME280;29823;47.404;8.566;2023-02-18T10:18:19;97497.25;;;16.00;79.23
39243;BME280;29823;47.404;8.566;2023-02-18T10:20:50;97496.38;;;15.55;78.86
39243;BME280;29823;47.404;8.566;2023-02-18T10:23:20;97477.94;;;15.64;79.49
39243;BME280;29823;47.404;8.566;2023-02-18T10:25:50;97488.59;;;15.98;78.98
39243;BME280;29823;47.404;8.566;2023-02-18T10:28:21;97484.50;;;15.96;77.98
39243;BME280;29823;47.404;8.566;2023-02-18T10:30:55;97483.84;;;15.38;78.99
39243;BME280;29823;47.404;8.566;2023-02-18T10:33:32;97484.22;;;14.72;84.04
39243;BME280;29823;47.404;8.566;2023-02-18T10:36:14;97481.28;;;15.43;81.70
39243;BME280;29823;47.404;8.566;2023-02-18T10:38:59;97491.53;;;15.57;80.63
39243;BME280;29823;47.404;8.566;2023-02-18T10:41:34;97465.72;;;15.33;82.31
39243;BME280;29823;47.404;8.566;2023-02-18T10:44:09;97496.59;;;15.42;81.40
39243;BME280;29823;47.404;8.566;2023-02-18T10:46:44;97501.06;;;15.25;82.86
39243;BME280;29823;47.404;8.566;2023-02-18T10:49:30;97490.91;;;14.93;85.17
39243;BME280;29823;47.404;8.566;2023-02-18T10:52:02;97497.00;;;14.77;86.96
39243;BME280;29823;47.404;8.566;2023-02-18T10:57:31;97486.78;;;14.67;86.91
39243;BME280;29823;47.404;8.566;2023-02-18T11:00:02;97490.72;;;14.30;89.10
39243;BME280;29823;47.404;8.566;2023-02-18T11:02:38;97492.06;;;14.51;89.54
39243;BME280;29823;47.404;8.566;2023-02-18T11:05:18;97478.69;;;14.03;91.59
39243;BME280;29823;47.404;8.566;2023-02-18T11:07:48;97484.44;;;14.36;90.82
39243;BME280;29823;47.404;8.566;2023-02-18T11:10:18;97473.53;;;14.31;90.71
39243;BME280;29823;47.404;8.566;2023-02-18T11:12:54;97473.91;;;14.46;88.55
39243;BME280;29823;47.404;8.566;2023-02-18T11:15:24;97466.06;;;15.02;85.63
39243;BME280;29823;47.404;8.566;2023-02-18T11:17:55;97474.59;;;15.22;81.85
39243;BME280;29823;47.404;8.566;2023-02-18T11:20:29;97465.09;;;15.31;81.76
39243;BME280;29823;47.404;8.566;2023-02-18T11:23:14;97462.13;;;15.84;79.57
39243;BME280;29823;47.404;8.566;2023-02-18T11:25:53;97448.25;;;16.36;76.27
39243;BME280;29823;47.404;8.566;2023-02-18T11:28:29;97442.88;;;16.69;73.28
39243;BME280;29823;47.404;8.566;2023-02-18T11:31:00;97447.91;;;17.20;70.38
39243;BME280;29823;47.404;8.566;2023-02-18T11:33:33;97444.13;;;17.59;69.47
39243;BME280;29823;47.404;8.566;2023-02-18T11:36:04;97439.50;;;17.17;70.29
39243;BME280;29823;47.404;8.566;2023-02-18T11:38:42;97435.03;;;17.06;70.37
39243;BME280;29823;47.404;8.566;2023-02-18T11:41:14;97419.88;;;17.26;69.99
39243;BME280;29823;47.404;8.566;2023-02-18T11:43:47;97420.00;;;16.93;70.77
39243;BME280;29823;47.404;8.566;2023-02-18T11:46:18;97434.41;;;16.99;71.40
39243;BME280;29823;47.404;8.566;2023-02-18T11:48:46;97433.47;;;17.10;71.28
39243;BME280;29823;47.404;8.566;2023-02-18T11:51:19;97429.06;;;16.49;71.58
39243;BME280;29823;47.404;8.566;2023-02-18T11:53:55;97417.91;;;16.62;71.52
39243;BME280;29823;47.404;8.566;2023-02-18T11:56:27;97415.59;;;16.21;74.08
39243;BME280;29823;47.404;8.566;2023-02-18T11:58:57;97408.91;;;16.40;72.05
39243;BME280;29823;47.404;8.566;2023-02-18T12:01:38;97400.91;;;17.21;69.80
39243;BME280;29823;47.404;8.566;2023-02-18T12:04:12;97393.19;;;17.08;70.14
39243;BME280;29823;47.404;8.566;2023-02-18T12:06:51;97374.72;;;17.43;67.44
39243;BME280;29823;47.404;8.566;2023-02-18T12:09:25;97370.09;;;17.01;69.06
39243;BME280;29823;47.404;8.566;2023-02-18T12:11:57;97375.97;;;18.15;65.82
39243;BME280;29823;47.404;8.566;2023-02-18T12:14:29;97367.09;;;17.88;65.45
39243;BME280;29823;47.404;8.566;2023-02-18T12:17:12;97369.00;;;17.18;67.67
39243;BME280;29823;47.404;8.566;2023-02-18T12:19:54;97362.13;;;17.80;66.48
39243;BME280;29823;47.404;8.566;2023-02-18T12:22:34;97354.38;;;18.20;66.12
39243;BME280;29823;47.404;8.566;2023-02-18T12:25:24;97348.50;;;18.70;63.87
39243;BME280;29823;47.404;8.566;2023-02-18T12:28:07;97342.81;;;18.71;62.51
39243;BME280;29823;47.404;8.566;2023-02-18T12:31:05;97346.00;;;18.58;62.40
39243;BME280;29823;47.404;8.566;2023-02-18T12:33:44;97345.78;;;20.28;58.29
39243;BME280;29823;47.404;8.566;2023-02-18T12:36:25;97332.69;;;20.75;55.74
39243;BME280;29823;47.404;8.566;2023-02-18T12:39:07;97324.22;;;20.96;55.80
39243;BME280;29823;47.404;8.566;2023-02-18T12:41:54;97322.34;;;20.72;55.10
39243;BME280;29823;47.404;8.566;2023-02-18T12:44:32;97324.28;;;19.86;55.70
39243;BME280;29823;47.404;8.566;2023-02-18T12:47:17;97321.16;;;19.23;58.11
39243;BME280;29823;47.404;8.566;2023-02-18T12:50:11;97321.31;;;19.01;57.97
39243;BME280;29823;47.404;8.566;2023-02-18T12:52:49;97309.44;;;19.12;57.94
39243;BME280;29823;47.404;8.566;2023-02-18T12:55:50;97307.34;;;19.34;57.12
39243;BME280;29823;47.404;8.566;2023-02-18T12:58:33;97292.72;;;19.35;57.55
39243;BME280;29823;47.404;8.566;2023-02-18T13:01:17;97288.44;;;19.94;55.92
39243;BME280;29823;47.404;8.566;2023-02-18T13:04:20;97294.94;;;19.68;56.58
39243;BME280;29823;47.404;8.566;2023-02-18T13:10:09;97277.00;;;19.52;56.54
39243;BME280;29823;47.404;8.566;2023-02-18T13:12:49;97278.22;;;18.48;58.61
39243;BME280;29823;47.404;8.566;2023-02-18T13:15:22;97277.59;;;17.15;61.79
39243;BME280;29823;47.404;8.566;2023-02-18T13:17:56;97277.63;;;16.72;65.11
39243;BME280;29823;47.404;8.566;2023-02-18T13:20:30;97276.00;;;16.71;66.33
39243;BME280;29823;47.404;8.566;2023-02-18T13:23:00;97260.03;;;16.91;65.27
39243;BME280;29823;47.404;8.566;2023-02-18T13:25:35;97268.03;;;16.60;66.53
39243;BME280;29823;47.404;8.566;2023-02-18T13:28:09;97263.13;;;16.57;66.90
39243;BME280;29823;47.404;8.566;2023-02-18T13:30:42;97259.91;;;16.81;65.68
39243;BME280;29823;47.404;8.566;2023-02-18T13:33:20;97260.59;;;16.50;66.77
39243;BME280;29823;47.404;8.566;2023-02-18T13:35:57;97245.78;;;16.53;67.46